sensor_id;sensor_type;location;lat;lon;timestamp;P1;durP1;ratioP1;P2;durP2;ratioP2
3549;SDS011;45572;48.804;8.330;2023-02-28T00:01:07;6.05;;;2.10;;
3549;SDS011;45572;48.804;8.330;2023-02-28T00:03:35;2.30;;;2.10;;
3549;SDS011;45572;48.804;8.330;2023-02-28T00:06:03;1.90;;;1.55;;
3549;SDS011;45572;48.804;8.330;2023-02-28T00:08:32;2.72;;;1.88;;
3549;SDS011;45572;48.804;8.330;2023-02-28T00:11:00;2.90;;;1.80;;
3549;SDS011;45572;48.804;8.330;2023-02-28T00:13:31;3.30;;;1.58;;
3549;SDS011;45572;48.804;8.330;2023-02-28T00:16:00;2.35;;;1.20;;
3549;SDS011;45572;48.804;8.330;2023-02-28T00:18:29;1.98;;;1.73;;
3549;SDS011;45572;48.804;8.330;2023-02-28T00:20:57;1.60;;;1.05;;
3549;SDS011;45572;48.804;8.330;2023-02-28T00:23:25;2.90;;;1.77;;
3549;SDS011;45572;48.804;8.330;2023-02-28T00:25:54;5.20;;;2.03;;
3549;SDS011;45572;48.804;8.330;2023-02-28T00:28:22;4.22;;;2.03;;
3549;SDS011;45572;48.804;8.330;2023-02-28T00:30:52;4.38;;;2.05;;
3549;SDS011;45572;48.804;8.330;2023-02-28T00:33:19;2.40;;;1.90;;
3549;SDS011;45572;48.804;8.330;2023-02-28T00:35:47;3.08;;;2.05;;
3549;SDS011;45572;48.804;8.330;2023-02-28T00:38:16;2.88;;;1.70;;
3549;SDS011;45572;48.804;8.330;2023-02-28T00:40:43;6.85;;;2.80;;
3549;SDS011;45572;48.804;8.330;2023-02-28T00:43:11;3.08;;;2.05;;
3549;SDS011;45572;48.804;8.330;2023-02-28T00:45:39;2.35;;;1.60;;
3549;SDS011;45572;48.804;8.330;2023-02-28T00:48:10;2.35;;;1.65;;
3549;SDS011;45572;48.804;8.330;2023-02-28T00:50:38;4.05;;;2.08;;
3549;SDS011;45572;48.804;8.330;2023-02-28T00:53:05;2.70;;;2.15;;
3549;SDS011;45572;48.804;8.330;2023-02-28T00:55:33;3.28;;;1.50;;
3549;SDS011;45572;48.804;8.330;2023-02-28T00:58:01;4.82;;;2.00;;
3549;SDS011;45572;48.804;8.330;2023-02-28T01:00:28;5.85;;;1.85;;
3549;SDS011;45572;48.804;8.330;2023-02-28T01:02:56;2.20;;;1.80;;
3549;SDS011;45572;48.804;8.330;2023-02-28T01:05:25;3.10;;;1.80;;
3549;SDS011;45572;48.804;8.330;2023-02-28T01:07:54;4.30;;;2.20;;
3549;SDS011;45572;48.804;8.330;2023-02-28T01:10:22;5.53;;;1.83;;
3549;SDS011;45572;48.804;8.330;2023-02-28T01:12:50;2.03;;;1.60;;
3549;SDS011;45572;48.804;8.330;2023-02-28T01:15:17;3.60;;;1.73;;
3549;SDS011;45572;48.804;8.330;2023-02-28T01:17:45;3.65;;;2.20;;
3549;SDS011;45572;48.804;8.330;2023-02-28T01:20:13;1.70;;;1.60;;
3549;SDS011;45572;48.804;8.330;2023-02-28T01:22:42;5.05;;;2.50;;
3549;SDS011;45572;48.804;8.330;2023-02-28T01:25:10;3.83;;;2.00;;
3549;SDS011;45572;48.804;8.330;2023-02-28T01:27:37;3.78;;;2.20;;
3549;SDS011;45572;48.804;8.330;2023-02-28T01:30:06;2.03;;;1.83;;
3549;SDS011;45572;48.804;8.330;2023-02-28T01:32:35;2.83;;;2.20;;
3549;SDS011;45572;48.804;8.330;2023-02-28T01:35:03;3.58;;;2.05;;
3549;SDS011;45572;48.804;8.330;2023-02-28T01:37:31;2.40;;;2.20;;
3549;SDS011;45572;48.804;8.330;2023-02-28T01:40:00;3.42;;;2.13;;
3549;SDS011;45572;48.804;8.330;2023-02-28T01:42:28;5.35;;;2.38;;
3549;SDS011;45572;48.804;8.330;2023-02-28T01:44:57;3.50;;;2.67;;
3549;SDS011;45572;48.804;8.330;2023-02-28T01:47:31;4.30;;;2.40;;
3549;SDS011;45572;48.804;8.330;2023-02-28T01:50:02;3.17;;;2.45;;
3549;SDS011;45572;48.804;8.330;2023-02-28T01:52:34;6.03;;;2.63;;
3549;SDS011;45572;48.804;8.330;2023-02-28T01:55:04;3.38;;;2.65;;
3549;SDS011;45572;48.804;8.330;2023-02-28T01:57:35;3.25;;;2.38;;
3549;SDS011;45572;48.804;8.330;2023-02-28T02:00:08;4.13;;;2.55;;
3549;SDS011;45572;48.804;8.330;2023-02-28T02:02:46;3.88;;;2.35;;
3549;SDS011;45572;48.804;8.330;2023-02-28T02:05:17;3.33;;;2.80;;
3549;SDS011;45572;48.804;8.330;2023-02-28T02:07:47;4.03;;;2.85;;
3549;SDS011;45572;48.804;8.330;2023-02-28T02:10:20;4.25;;;2.25;;
3549;SDS011;45572;48.804;8.330;2023-02-28T02:12:55;4.03;;;2.45;;
3549;SDS011;45572;48.804;8.330;2023-02-28T02:15:40;4.70;;;3.28;;
3549;SDS011;45572;48.804;8.330;2023-02-28T02:18:14;3.72;;;2.47;;
3549;SDS011;45572;48.804;8.330;2023-02-28T02:20:57;3.85;;;2.63;;
3549;SDS011;45572;48.804;8.330;2023-02-28T02:23:47;3.35;;;2.67;;
3549;SDS011;45572;48.804;8.330;2023-02-28T02:26:33;4.60;;;3.25;;
3549;SDS011;45572;48.804;8.330;2023-02-28T02:29:20;6.05;;;3.00;;
3549;SDS011;45572;48.804;8.330;2023-02-28T02:32:08;3.55;;;2.75;;
3549;SDS011;45572;48.804;8.330;2023-02-28T02:34:51;4.70;;;2.80;;
3549;SDS011;45572;48.804;8.330;2023-02-28T02:37:27;5.95;;;2.90;;
3549;SDS011;45572;48.804;8.330;2023-02-28T02:40:03;3.00;;;2.35;;
3549;SDS011;45572;48.804;8.330;2023-02-28T02:42:39;4.90;;;2.80;;
3549;SDS011;45572;48.804;8.330;2023-02-28T02:45:11;4.55;;;3.10;;
3549;SDS011;45572;48.804;8.330;2023-02-28T02:47:43;5.63;;;3.30;;
3549;SDS011;45572;48.804;8.330;2023-02-28T02:50:15;3.25;;;2.17;;
3549;SDS011;45572;48.804;8.330;2023-02-28T02:52:50;4.55;;;2.90;;
3549;SDS011;45572;48.804;8.330;2023-02-28T02:55:21;3.30;;;2.95;;
3549;SDS011;45572;48.804;8.330;2023-02-28T02:57:51;3.10;;;2.60;;
3549;SDS011;45572;48.804;8.330;2023-02-28T03:00:22;3.47;;;2.95;;
3549;SDS011;45572;48.804;8.330;2023-02-28T03:02:52;6.85;;;2.67;;
3549;SDS011;45572;48.804;8.330;2023-02-28T03:05:25;6.07;;;2.90;;
3549;SDS011;45572;48.804;8.330;2023-02-28T03:07:54;4.75;;;2.63;;
3549;SDS011;45572;48.804;8.330;2023-02-28T03:10:26;4.43;;;2.72;;
3549;SDS011;45572;48.804;8.330;2023-02-28T03:13:00;3.63;;;2.55;;
3549;SDS011;45572;48.804;8.330;2023-02-28T03:15:40;4.03;;;2.83;;
3549;SDS011;45572;48.804;8.330;2023-02-28T03:18:22;6.28;;;3.50;;
3549;SDS011;45572;48.804;8.330;2023-02-28T03:20:59;5.05;;;3.10;;
3549;SDS011;45572;48.804;8.330;2023-02-28T03:23:38;4.82;;;3.20;;
3549;SDS011;45572;48.804;8.330;2023-02-28T03:26:13;3.20;;;2.38;;
3549;SDS011;45572;48.804;8.330;2023-02-28T03:28:49;13.02;;;3.17;;
3549;SDS011;45572;48.804;8.330;2023-02-28T03:31:22;4.60;;;2.63;;
3549;SDS011;45572;48.804;8.330;2023-02-28T03:33:57;5.22;;;3.70;;
3549;SDS011;45572;48.804;8.330;2023-02-28T03:36:30;10.63;;;3.05;;
3549;SDS011;45572;48.804;8.330;2023-02-28T03:39:11;4.43;;;2.42;;
3549;SDS011;45572;48.804;8.330;2023-02-28T03:41:45;3.50;;;2.50;;
3549;SDS011;45572;48.804;8.330;2023-02-28T03:44:17;6.93;;;3.13;;
3549;SDS011;45572;48.804;8.330;2023-02-28T03:46:50;5.53;;;3.00;;
3549;SDS011;45572;48.804;8.330;2023-02-28T03:49:25;5.43;;;3.17;;
3549;SDS011;45572;48.804;8.330;2023-02-28T03:51:57;5.53;;;3.28;;
3549;SDS011;45572;48.804;8.330;2023-02-28T03:54:29;5.30;;;3.38;;
3549;SDS011;45572;48.804;8.330;2023-02-28T03:57:02;4.40;;;3.20;;
3549;SDS011;45572;48.804;8.330;2023-02-28T03:59:34;4.65;;;2.45;;
3549;SDS011;45572;48.804;8.330;2023-02-28T04:02:07;3.92;;;3.17;;
3549;SDS011;45572;48.804;8.330;2023-02-28T04:04:35;7.13;;;4.03;;
3549;SDS011;45572;48.804;8.330;2023-02-28T04:07:05;6.00;;;3.03;;
3549;SDS011;45572;48.804;8.330;2023-02-28T04:09:34;6.20;;;3.47;;
3549;SDS011;45572;48.804;8.330;2023-02-28T04:12:02;5.75;;;3.00;;
3549;SDS011;45572;48.804;8.330;2023-02-28T04:14:33;5.40;;;3.20;;
3549;SDS011;45572;48.804;8.330;2023-02-28T04:17:00;3.50;;;3.20;;
3549;SDS011;45572;48.804;8.330;2023-02-28T04:19:28;6.65;;;3.20;;
3549;SDS011;45572;48.804;8.330;2023-02-28T04:21:56;5.53;;;3.47;;
3549;SDS011;45572;48.804;8.330;2023-02-28T04:24:26;7.00;;;3.90;;
3549;SDS011;45572;48.804;8.330;2023-02-28T04:26:55;7.00;;;3.13;;
3549;SDS011;45572;48.804;8.330;2023-02-28T04:29:26;7.75;;;3.47;;
3549;SDS011;45572;48.804;8.330;2023-02-28T04:31:55;4.13;;;3.28;;
3549;SDS011;45572;48.804;8.330;2023-02-28T04:34:24;4.85;;;3.08;;
3549;SDS011;45572;48.804;8.330;2023-02-28T04:36:52;4.47;;;4.00;;
3549;SDS011;45572;48.804;8.330;2023-02-28T04:39:39;8.70;;;3.00;;
3549;SDS011;45572;48.804;8.330;2023-02-28T04:42:08;7.00;;;3.65;;
3549;SDS011;45572;48.804;8.330;2023-02-28T04:44:36;6.30;;;4.35;;
3549;SDS011;45572;48.804;8.330;2023-02-28T04:47:04;5.40;;;3.58;;
3549;SDS011;45572;48.804;8.330;2023-02-28T04:49:32;20.35;;;4.18;;
3549;SDS011;45572;48.804;8.330;2023-02-28T04:51:59;4.10;;;2.95;;
3549;SDS011;45572;48.804;8.330;2023-02-28T04:54:28;4.03;;;3.30;;
3549;SDS011;45572;48.804;8.330;2023-02-28T04:56:57;5.72;;;3.65;;
3549;SDS011;45572;48.804;8.330;2023-02-28T04:59:25;6.47;;;3.55;;
3549;SDS011;45572;48.804;8.330;2023-02-28T05:01:52;5.55;;;3.67;;
3549;SDS011;45572;48.804;8.330;2023-02-28T05:04:20;7.90;;;3.70;;
3549;SDS011;45572;48.804;8.330;2023-02-28T05:06:48;7.70;;;3.95;;
3549;SDS011;45572;48.804;8.330;2023-02-28T05:09:16;8.20;;;3.83;;
3549;SDS011;45572;48.804;8.330;2023-02-28T05:11:43;7.60;;;3.60;;
3549;SDS011;45572;48.804;8.330;2023-02-28T05:14:13;6.78;;;4.25;;
3549;SDS011;45572;48.804;8.330;2023-02-28T05:16:41;6.57;;;3.88;;
3549;SDS011;45572;48.804;8.330;2023-02-28T05:19:09;5.55;;;3.63;;
3549;SDS011;45572;48.804;8.330;2023-02-28T05:21:37;3.78;;;3.08;;
3549;SDS011;45572;48.804;8.330;2023-02-28T05:24:07;6.90;;;4.72;;
3549;SDS011;45572;48.804;8.330;2023-02-28T05:26:39;8.45;;;3.70;;
3549;SDS011;45572;48.804;8.330;2023-02-28T05:29:08;6.57;;;4.32;;
3549;SDS011;45572;48.804;8.330;2023-02-28T05:31:37;7.40;;;4.38;;
3549;SDS011;45572;48.804;8.330;2023-02-28T05:34:05;6.22;;;4.43;;
3549;SDS011;45572;48.804;8.330;2023-02-28T05:36:33;5.97;;;4.05;;
3549;SDS011;45572;48.804;8.330;2023-02-28T05:39:04;9.13;;;3.83;;
3549;SDS011;45572;48.804;8.330;2023-02-28T05:41:33;6.88;;;4.40;;
3549;SDS011;45572;48.804;8.330;2023-02-28T05:44:01;8.13;;;5.00;;
3549;SDS011;45572;48.804;8.330;2023-02-28T05:46:28;6.82;;;4.32;;
3549;SDS011;45572;48.804;8.330;2023-02-28T05:48:57;8.00;;;4.45;;
3549;SDS011;45572;48.804;8.330;2023-02-28T05:51:27;5.25;;;4.38;;
3549;SDS011;45572;48.804;8.330;2023-02-28T05:53:58;6.75;;;4.18;;
3549;SDS011;45572;48.804;8.330;2023-02-28T05:56:26;6.95;;;4.97;;
3549;SDS011;45572;48.804;8.330;2023-02-28T05:58:57;7.20;;;4.55;;
3549;SDS011;45572;48.804;8.330;2023-02-28T06:01:30;8.68;;;4.72;;
3549;SDS011;45572;48.804;8.330;2023-02-28T06:04:08;5.90;;;3.85;;
3549;SDS011;45572;48.804;8.330;2023-02-28T06:06:54;6.95;;;4.50;;
3549;SDS011;45572;48.804;8.330;2023-02-28T06:09:24;4.63;;;4.07;;
3549;SDS011;45572;48.804;8.330;2023-02-28T06:11:52;5.55;;;3.58;;
3549;SDS011;45572;48.804;8.330;2023-02-28T06:14:22;6.43;;;4.10;;
3549;SDS011;45572;48.804;8.330;2023-02-28T06:16:50;5.78;;;3.95;;
3549;SDS011;45572;48.804;8.330;2023-02-28T06:19:20;6.82;;;4.78;;
3549;SDS011;45572;48.804;8.330;2023-02-28T06:21:49;11.65;;;4.32;;
3549;SDS011;45572;48.804;8.330;2023-02-28T06:24:19;5.97;;;4.25;;
3549;SDS011;45572;48.804;8.330;2023-02-28T06:26:49;7.68;;;4.47;;
3549;SDS011;45572;48.804;8.330;2023-02-28T06:29:17;9.40;;;4.97;;
3549;SDS011;45572;48.804;8.330;2023-02-28T06:31:47;10.10;;;4.82;;
3549;SDS011;45572;48.804;8.330;2023-02-28T06:34:17;7.20;;;4.43;;
3549;SDS011;45572;48.804;8.330;2023-02-28T06:36:46;6.53;;;4.47;;
3549;SDS011;45572;48.804;8.330;2023-02-28T06:39:18;5.78;;;4.05;;
3549;SDS011;45572;48.804;8.330;2023-02-28T06:41:46;8.25;;;4.97;;
3549;SDS011;45572;48.804;8.330;2023-02-28T06:44:21;6.07;;;4.20;;
3549;SDS011;45572;48.804;8.330;2023-02-28T06:46:49;8.38;;;4.60;;
3549;SDS011;45572;48.804;8.330;2023-02-28T06:49:17;9.20;;;5.03;;
3549;SDS011;45572;48.804;8.330;2023-02-28T06:51:46;9.68;;;5.15;;
3549;SDS011;45572;48.804;8.330;2023-02-28T06:54:14;7.43;;;5.00;;
3549;SDS011;45572;48.804;8.330;2023-02-28T06:56:44;6.82;;;4.72;;
3549;SDS011;45572;48.804;8.330;2023-02-28T06:59:12;11.40;;;5.82;;
3549;SDS011;45572;48.804;8.330;2023-02-28T07:01:40;8.57;;;5.63;;
3549;SDS011;45572;48.804;8.330;2023-02-28T07:04:08;6.63;;;5.20;;
3549;SDS011;45572;48.804;8.330;2023-02-28T07:06:38;8.88;;;5.05;;
3549;SDS011;45572;48.804;8.330;2023-02-28T07:09:07;8.57;;;5.07;;
3549;SDS011;45572;48.804;8.330;2023-02-28T07:11:35;9.15;;;5.28;;
3549;SDS011;45572;48.804;8.330;2023-02-28T07:14:03;7.15;;;4.60;;
3549;SDS011;45572;48.804;8.330;2023-02-28T07:16:31;7.32;;;5.38;;
3549;SDS011;45572;48.804;8.330;2023-02-28T07:18:58;10.07;;;4.60;;
3549;SDS011;45572;48.804;8.330;2023-02-28T07:21:26;8.75;;;4.55;;
3549;SDS011;45572;48.804;8.330;2023-02-28T07:23:56;8.20;;;4.90;;
3549;SDS011;45572;48.804;8.330;2023-02-28T07:26:25;8.40;;;5.07;;
3549;SDS011;45572;48.804;8.330;2023-02-28T07:28:53;6.90;;;4.53;;
3549;SDS011;45572;48.804;8.330;2023-02-28T07:31:21;8.77;;;4.65;;
3549;SDS011;45572;48.804;8.330;2023-02-28T07:33:50;9.07;;;5.35;;
3549;SDS011;45572;48.804;8.330;2023-02-28T07:36:19;8.10;;;4.65;;
3549;SDS011;45572;48.804;8.330;2023-02-28T07:38:47;6.82;;;4.95;;
3549;SDS011;45572;48.804;8.330;2023-02-28T07:41:18;8.32;;;5.20;;
3549;SDS011;45572;48.804;8.330;2023-02-28T07:43:52;9.43;;;5.13;;
3549;SDS011;45572;48.804;8.330;2023-02-28T07:46:20;6.78;;;4.40;;
3549;SDS011;45572;48.804;8.330;2023-02-28T07:48:49;6.90;;;4.25;;
3549;SDS011;45572;48.804;8.330;2023-02-28T07:51:16;8.13;;;4.68;;
3549;SDS011;45572;48.804;8.330;2023-02-28T07:53:44;6.85;;;4.45;;
3549;SDS011;45572;48.804;8.330;2023-02-28T07:56:12;6.05;;;4.60;;
3549;SDS011;45572;48.804;8.330;2023-02-28T07:58:41;9.07;;;5.00;;
3549;SDS011;45572;48.804;8.330;2023-02-28T08:01:09;9.27;;;4.60;;
3549;SDS011;45572;48.804;8.330;2023-02-28T08:03:38;7.05;;;3.90;;
3549;SDS011;45572;48.804;8.330;2023-02-28T08:06:07;8.00;;;4.28;;
3549;SDS011;45572;48.804;8.330;2023-02-28T08:08:41;9.07;;;5.50;;
3549;SDS011;45572;48.804;8.330;2023-02-28T08:11:10;5.40;;;4.07;;
3549;SDS011;45572;48.804;8.330;2023-02-28T08:13:38;10.93;;;5.50;;
3549;SDS011;45572;48.804;8.330;2023-02-28T08:16:07;13.65;;;5.05;;
3549;SDS011;45572;48.804;8.330;2023-02-28T08:18:35;12.82;;;5.65;;
3549;SDS011;45572;48.804;8.330;2023-02-28T08:21:06;7.35;;;4.68;;
3549;SDS011;45572;48.804;8.330;2023-02-28T08:23:35;7.90;;;4.38;;
3549;SDS011;45572;48.804;8.330;2023-02-28T08:26:03;6.53;;;4.40;;
3549;SDS011;45572;48.804;8.330;2023-02-28T08:28:31;6.22;;;4.53;;
3549;SDS011;45572;48.804;8.330;2023-02-28T08:30:59;7.82;;;3.97;;
3549;SDS011;45572;48.804;8.330;2023-02-28T08:33:29;7.50;;;4.72;;
3549;SDS011;45572;48.804;8.330;2023-02-28T08:35:57;8.43;;;5.10;;
3549;SDS011;45572;48.804;8.330;2023-02-28T08:38:25;6.50;;;4.30;;
3549;SDS011;45572;48.804;8.330;2023-02-28T08:40:57;6.20;;;4.85;;
3549;SDS011;45572;48.804;8.330;2023-02-28T08:43:25;8.63;;;5.05;;
3549;SDS011;45572;48.804;8.330;2023-02-28T08:45:54;6.05;;;5.45;;
3549;SDS011;45572;48.804;8.330;2023-02-28T08:48:23;6.60;;;4.30;;
3549;SDS011;45572;48.804;8.330;2023-02-28T08:50:56;10.68;;;4.30;;
3549;SDS011;45572;48.804;8.330;2023-02-28T08:53:33;7.22;;;4.95;;
3549;SDS011;45572;48.804;8.330;2023-02-28T08:56:02;7.25;;;4.60;;
3549;SDS011;45572;48.804;8.330;2023-02-28T08:58:32;7.15;;;5.30;;
3549;SDS011;45572;48.804;8.330;2023-02-28T09:01:00;8.38;;;5.07;;
3549;SDS011;45572;48.804;8.330;2023-02-28T09:03:34;5.40;;;4.55;;
3549;SDS011;45572;48.804;8.330;2023-02-28T09:06:03;8.38;;;4.68;;
3549;SDS011;45572;48.804;8.330;2023-02-28T09:08:31;6.85;;;4.53;;
3549;SDS011;45572;48.804;8.330;2023-02-28T09:11:00;10.70;;;5.13;;
3549;SDS011;45572;48.804;8.330;2023-02-28T09:13:30;6.88;;;5.35;;
3549;SDS011;45572;48.804;8.330;2023-02-28T09:15:59;6.18;;;4.35;;
3549;SDS011;45572;48.804;8.330;2023-02-28T09:18:31;8.35;;;5.10;;
3549;SDS011;45572;48.804;8.330;2023-02-28T09:21:10;8.07;;;4.93;;
3549;SDS011;45572;48.804;8.330;2023-02-28T09:23:40;11.05;;;5.97;;
3549;SDS011;45572;48.804;8.330;2023-02-28T09:26:13;7.78;;;5.45;;
3549;SDS011;45572;48.804;8.330;2023-02-28T09:28:43;7.57;;;4.75;;
3549;SDS011;45572;48.804;8.330;2023-02-28T09:31:11;9.00;;;5.03;;
3549;SDS011;45572;48.804;8.330;2023-02-28T09:33:40;5.95;;;4.22;;
3549;SDS011;45572;48.804;8.330;2023-02-28T09:36:10;8.05;;;5.10;;
3549;SDS011;45572;48.804;8.330;2023-02-28T09:38:41;7.75;;;4.45;;
3549;SDS011;45572;48.804;8.330;2023-02-28T09:41:11;6.15;;;5.03;;
3549;SDS011;45572;48.804;8.330;2023-02-28T09:43:43;9.10;;;5.10;;
3549;SDS011;45572;48.804;8.330;2023-02-28T09:46:17;10.43;;;6.18;;
3549;SDS011;45572;48.804;8.330;2023-02-28T09:48:56;10.60;;;5.47;;
3549;SDS011;45572;48.804;8.330;2023-02-28T09:51:32;7.80;;;4.85;;
3549;SDS011;45572;48.804;8.330;2023-02-28T09:54:09;8.43;;;5.20;;
3549;SDS011;45572;48.804;8.330;2023-02-28T09:56:45;8.63;;;4.38;;
3549;SDS011;45572;48.804;8.330;2023-02-28T09:59:23;7.72;;;5.05;;
3549;SDS011;45572;48.804;8.330;2023-02-28T10:02:02;14.10;;;5.55;;
3549;SDS011;45572;48.804;8.330;2023-02-28T10:04:42;12.10;;;6.50;;
3549;SDS011;45572;48.804;8.330;2023-02-28T10:07:21;8.00;;;4.80;;
3549;SDS011;45572;48.804;8.330;2023-02-28T10:09:54;8.88;;;5.72;;
3549;SDS011;45572;48.804;8.330;2023-02-28T10:12:25;6.80;;;5.55;;
3549;SDS011;45572;48.804;8.330;2023-02-28T10:14:56;13.00;;;6.22;;
3549;SDS011;45572;48.804;8.330;2023-02-28T10:17:29;9.30;;;5.57;;
3549;SDS011;45572;48.804;8.330;2023-02-28T10:20:25;9.75;;;5.60;;
3549;SDS011;45572;48.804;8.330;2023-02-28T10:22:58;9.98;;;6.45;;
3549;SDS011;45572;48.804;8.330;2023-02-28T10:25:34;10.18;;;5.13;;
3549;SDS011;45572;48.804;8.330;2023-02-28T10:28:07;9.20;;;6.30;;
3549;SDS011;45572;48.804;8.330;2023-02-28T10:30:38;9.43;;;5.78;;
3549;SDS011;45572;48.804;8.330;2023-02-28T10:33:13;9.38;;;6.20;;
3549;SDS011;45572;48.804;8.330;2023-02-28T10:35:46;10.65;;;6.28;;
3549;SDS011;45572;48.804;8.330;2023-02-28T10:38:17;10.52;;;5.43;;
3549;SDS011;45572;48.804;8.330;2023-02-28T10:40:46;14.05;;;6.60;;
3549;SDS011;45572;48.804;8.330;2023-02-28T10:43:18;8.02;;;5.80;;
3549;SDS011;45572;48.804;8.330;2023-02-28T10:45:52;9.90;;;6.50;;
3549;SDS011;45572;48.804;8.330;2023-02-28T10:48:26;8.75;;;5.88;;
3549;SDS011;45572;48.804;8.330;2023-02-28T10:50:57;12.80;;;5.82;;
3549;SDS011;45572;48.804;8.330;2023-02-28T10:53:31;10.55;;;6.28;;
3549;SDS011;45572;48.804;8.330;2023-02-28T10:56:23;9.90;;;6.80;;
3549;SDS011;45572;48.804;8.330;2023-02-28T10:58:53;9.88;;;6.63;;
3549;SDS011;45572;48.804;8.330;2023-02-28T11:01:23;8.27;;;6.13;;
3549;SDS011;45572;48.804;8.330;2023-02-28T11:04:01;11.43;;;6.78;;
3549;SDS011;45572;48.804;8.330;2023-02-28T11:06:30;10.57;;;6.57;;
3549;SDS011;45572;48.804;8.330;2023-02-28T11:09:02;11.93;;;6.90;;
3549;SDS011;45572;48.804;8.330;2023-02-28T11:11:41;8.73;;;6.03;;
3549;SDS011;45572;48.804;8.330;2023-02-28T11:14:17;12.70;;;7.05;;
3549;SDS011;45572;48.804;8.330;2023-02-28T11:16:48;10.45;;;5.80;;
3549;SDS011;45572;48.804;8.330;2023-02-28T11:19:18;9.90;;;5.70;;
3549;SDS011;45572;48.804;8.330;2023-02-28T11:21:51;7.97;;;5.57;;
3549;SDS011;45572;48.804;8.330;2023-02-28T11:24:24;8.73;;;6.40;;
3549;SDS011;45572;48.804;8.330;2023-02-28T11:26:55;8.20;;;5.30;;
3549;SDS011;45572;48.804;8.330;2023-02-28T11:29:24;9.40;;;6.30;;
3549;SDS011;45572;48.804;8.330;2023-02-28T11:34:46;13.60;;;6.55;;
3549;SDS011;45572;48.804;8.330;2023-02-28T11:37:27;10.07;;;5.75;;
3549;SDS011;45572;48.804;8.330;2023-02-28T11:39:58;9.98;;;6.10;;
3549;SDS011;45572;48.804;8.330;2023-02-28T11:42:38;12.13;;;6.28;;
3549;SDS011;45572;48.804;8.330;2023-02-28T11:45:21;14.70;;;7.25;;
3549;SDS011;45572;48.804;8.330;2023-02-28T11:48:04;13.10;;;5.85;;
3549;SDS011;45572;48.804;8.330;2023-02-28T11:50:47;8.70;;;5.97;;
3549;SDS011;45572;48.804;8.330;2023-02-28T11:53:31;14.88;;;6.78;;
3549;SDS011;45572;48.804;8.330;2023-02-28T11:56:14;6.45;;;5.80;;
3549;SDS011;45572;48.804;8.330;2023-02-28T11:58:55;12.00;;;6.15;;
3549;SDS011;45572;48.804;8.330;2023-02-28T12:01:38;10.32;;;6.10;;
3549;SDS011;45572;48.804;8.330;2023-02-28T12:04:25;9.75;;;5.38;;
3549;SDS011;45572;48.804;8.330;2023-02-28T12:07:03;11.20;;;5.85;;
3549;SDS011;45572;48.804;8.330;2023-02-28T12:09:40;9.75;;;6.10;;
3549;SDS011;45572;48.804;8.330;2023-02-28T12:12:18;8.75;;;6.10;;
3549;SDS011;45572;48.804;8.330;2023-02-28T12:14:57;13.68;;;7.47;;
3549;SDS011;45572;48.804;8.330;2023-02-28T12:17:44;8.35;;;6.85;;
3549;SDS011;45572;48.804;8.330;2023-02-28T12:20:20;8.35;;;5.35;;
3549;SDS011;45572;48.804;8.330;2023-02-28T12:22:58;10.52;;;6.50;;
3549;SDS011;45572;48.804;8.330;2023-02-28T12:25:46;12.20;;;6.55;;
3549;SDS011;45572;48.804;8.330;2023-02-28T12:28:27;9.02;;;6.40;;
3549;SDS011;45572;48.804;8.330;2023-02-28T12:30:59;9.20;;;5.95;;
3549;SDS011;45572;48.804;8.330;2023-02-28T12:33:32;10.95;;;6.65;;
3549;SDS011;45572;48.804;8.330;2023-02-28T12:36:03;14.30;;;7.50;;
3549;SDS011;45572;48.804;8.330;2023-02-28T12:38:38;8.00;;;6.38;;
3549;SDS011;45572;48.804;8.330;2023-02-28T12:41:10;10.85;;;5.90;;
3549;SDS011;45572;48.804;8.330;2023-02-28T12:43:44;11.38;;;7.25;;
3549;SDS011;45572;48.804;8.330;2023-02-28T12:46:41;10.52;;;6.32;;
3549;SDS011;45572;48.804;8.330;2023-02-28T12:49:13;8.93;;;6.40;;
3549;SDS011;45572;48.804;8.330;2023-02-28T12:51:52;11.48;;;7.38;;
3549;SDS011;45572;48.804;8.330;2023-02-28T12:54:22;12.23;;;6.63;;
3549;SDS011;45572;48.804;8.330;2023-02-28T12:56:56;8.75;;;5.97;;
3549;SDS011;45572;48.804;8.330;2023-02-28T12:59:36;13.13;;;6.53;;
3549;SDS011;45572;48.804;8.330;2023-02-28T13:02:20;10.95;;;7.13;;
3549;SDS011;45572;48.804;8.330;2023-02-28T13:05:06;8.23;;;5.75;;
3549;SDS011;45572;48.804;8.330;2023-02-28T13:07:50;9.18;;;6.53;;
3549;SDS011;45572;48.804;8.330;2023-02-28T13:10:41;11.18;;;6.32;;
3549;SDS011;45572;48.804;8.330;2023-02-28T13:13:14;12.73;;;6.43;;
3549;SDS011;45572;48.804;8.330;2023-02-28T13:18:33;12.10;;;7.20;;
3549;SDS011;45572;48.804;8.330;2023-02-28T13:21:07;10.88;;;7.22;;
3549;SDS011;45572;48.804;8.330;2023-02-28T13:23:40;9.07;;;6.28;;
3549;SDS011;45572;48.804;8.330;2023-02-28T13:29:31;15.77;;;7.68;;
3549;SDS011;45572;48.804;8.330;2023-02-28T13:37:47;10.13;;;6.38;;
3549;SDS011;45572;48.804;8.330;2023-02-28T13:43:07;16.13;;;6.22;;
3549;SDS011;45572;48.804;8.330;2023-02-28T13:45:36;10.60;;;6.55;;
3549;SDS011;45572;48.804;8.330;2023-02-28T13:48:16;7.70;;;6.10;;
3549;SDS011;45572;48.804;8.330;2023-02-28T13:50:46;8.18;;;6.68;;
3549;SDS011;45572;48.804;8.330;2023-02-28T13:56:07;10.18;;;6.35;;
3549;SDS011;45572;48.804;8.330;2023-02-28T13:58:53;14.82;;;7.80;;
3549;SDS011;45572;48.804;8.330;2023-02-28T14:01:26;12.50;;;6.70;;
3549;SDS011;45572;48.804;8.330;2023-02-28T14:04:21;10.27;;;6.90;;
3549;SDS011;45572;48.804;8.330;2023-02-28T14:07:15;14.32;;;7.13;;
3549;SDS011;45572;48.804;8.330;2023-02-28T14:09:49;12.00;;;6.50;;
3549;SDS011;45572;48.804;8.330;2023-02-28T14:18:14;13.30;;;7.15;;
3549;SDS011;45572;48.804;8.330;2023-02-28T14:21:01;9.70;;;6.45;;
3549;SDS011;45572;48.804;8.330;2023-02-28T14:26:33;12.60;;;6.95;;
3549;SDS011;45572;48.804;8.330;2023-02-28T14:29:28;14.98;;;6.50;;
3549;SDS011;45572;48.804;8.330;2023-02-28T14:32:06;11.27;;;6.25;;
3549;SDS011;45572;48.804;8.330;2023-02-28T14:34:44;10.57;;;6.25;;
3549;SDS011;45572;48.804;8.330;2023-02-28T14:37:23;10.65;;;7.10;;
3549;SDS011;45572;48.804;8.330;2023-02-28T14:39:55;14.57;;;6.05;;
3549;SDS011;45572;48.804;8.330;2023-02-28T14:42:27;13.02;;;7.30;;
3549;SDS011;45572;48.804;8.330;2023-02-28T14:44:57;11.55;;;6.72;;
3549;SDS011;45572;48.804;8.330;2023-02-28T14:47:27;12.65;;;7.15;;
3549;SDS011;45572;48.804;8.330;2023-02-28T14:50:00;11.90;;;7.30;;
3549;SDS011;45572;48.804;8.330;2023-02-28T14:52:32;11.52;;;6.40;;
3549;SDS011;45572;48.804;8.330;2023-02-28T14:55:01;12.40;;;6.47;;
3549;SDS011;45572;48.804;8.330;2023-02-28T14:57:35;9.43;;;6.47;;
3549;SDS011;45572;48.804;8.330;2023-02-28T15:00:10;11.70;;;7.00;;
3549;SDS011;45572;48.804;8.330;2023-02-28T15:02:43;9.98;;;6.35;;
3549;SDS011;45572;48.804;8.330;2023-02-28T15:05:19;11.10;;;5.97;;
3549;SDS011;45572;48.804;8.330;2023-02-28T15:10:40;8.45;;;5.55;;
3549;SDS011;45572;48.804;8.330;2023-02-28T15:13:11;8.32;;;6.60;;
3549;SDS011;45572;48.804;8.330;2023-02-28T15:15:42;10.93;;;7.00;;
3549;SDS011;45572;48.804;8.330;2023-02-28T15:18:30;10.57;;;6.47;;
3549;SDS011;45572;48.804;8.330;2023-02-28T15:21:07;13.60;;;7.40;;
3549;SDS011;45572;48.804;8.330;2023-02-28T15:23:49;12.23;;;7.70;;
3549;SDS011;45572;48.804;8.330;2023-02-28T15:26:22;13.00;;;7.80;;
3549;SDS011;45572;48.804;8.330;2023-02-28T15:28:54;13.15;;;7.40;;
3549;SDS011;45572;48.804;8.330;2023-02-28T15:31:27;11.38;;;7.05;;
3549;SDS011;45572;48.804;8.330;2023-02-28T15:34:22;11.20;;;6.88;;
3549;SDS011;45572;48.804;8.330;2023-02-28T15:37:06;11.95;;;7.75;;
3549;SDS011;45572;48.804;8.330;2023-02-28T15:39:50;12.90;;;7.70;;
3549;SDS011;45572;48.804;8.330;2023-02-28T15:42:21;9.43;;;6.70;;
3549;SDS011;45572;48.804;8.330;2023-02-28T15:44:50;11.18;;;7.45;;
3549;SDS011;45572;48.804;8.330;2023-02-28T15:47:18;13.25;;;7.45;;
3549;SDS011;45572;48.804;8.330;2023-02-28T15:49:49;11.95;;;7.45;;
3549;SDS011;45572;48.804;8.330;2023-02-28T15:52:20;11.43;;;6.82;;
3549;SDS011;45572;48.804;8.330;2023-02-28T15:54:51;12.23;;;7.22;;
3549;SDS011;45572;48.804;8.330;2023-02-28T15:57:20;10.73;;;7.28;;
3549;SDS011;45572;48.804;8.330;2023-02-28T15:59:51;10.82;;;7.65;;
3549;SDS011;45572;48.804;8.330;2023-02-28T16:02:22;15.18;;;6.90;;